sensor_id;sensor_type;location;lat;lon;timestamp;temperature;humidity
20750;DHT22;10535;50.664;4.564;2023-06-26T00:00:06;22.40;99.90
20750;DHT22;10535;50.664;4.564;2023-06-26T00:02:33;22.30;99.90
20750;DHT22;10535;50.664;4.564;2023-06-26T00:04:59;22.10;99.90
20750;DHT22;10535;50.664;4.564;2023-06-26T00:07:30;22.10;99.90
20750;DHT22;10535;50.664;4.564;2023-06-26T00:09:57;22.00;99.90
20750;DHT22;10535;50.664;4.564;2023-06-26T00:12:24;22.00;99.90
20750;DHT22;10535;50.664;4.564;2023-06-26T00:14:49;21.90;99.90
20750;DHT22;10535;50.664;4.564;2023-06-26T00:17:16;21.90;99.90
20750;DHT22;10535;50.664;4.564;2023-06-26T00:19:43;21.90;99.90
20750;DHT22;10535;50.664;4.564;2023-06-26T00:22:09;22.00;99.90
20750;DHT22;10535;50.664;4.564;2023-06-26T00:24:35;21.90;99.90
20750;DHT22;10535;50.664;4.564;2023-06-26T00:27:00;21.90;99.90
20750;DHT22;10535;50.664;4.564;2023-06-26T00:29:27;21.80;99.90
20750;DHT22;10535;50.664;4.564;2023-06-26T00:31:53;21.70;99.90
20750;DHT22;10535;50.664;4.564;2023-06-26T00:34:19;21.60;99.90
20750;DHT22;10535;50.664;4.564;2023-06-26T00:36:46;21.60;99.90
20750;DHT22;10535;50.664;4.564;2023-06-26T00:39:12;21.50;99.90
20750;DHT22;10535;50.664;4.564;2023-06-26T00:41:39;21.50;99.90
20750;DHT22;10535;50.664;4.564;2023-06-26T00:44:05;21.60;99.90
20750;DHT22;10535;50.664;4.564;2023-06-26T00:46:31;21.40;99.90
20750;DHT22;10535;50.664;4.564;2023-06-26T00:49:03;21.30;99.90
20750;DHT22;10535;50.664;4.564;2023-06-26T00:51:30;21.20;99.90
20750;DHT22;10535;50.664;4.564;2023-06-26T00:53:58;21.20;99.90
20750;DHT22;10535;50.664;4.564;2023-06-26T00:56:24;21.10;99.90
20750;DHT22;10535;50.664;4.564;2023-06-26T00:58:50;21.00;99.90
20750;DHT22;10535;50.664;4.564;2023-06-26T01:01:17;20.90;99.90
20750;DHT22;10535;50.664;4.564;2023-06-26T01:03:49;20.80;99.90
20750;DHT22;10535;50.664;4.564;2023-06-26T01:06:21;20.80;99.90
20750;DHT22;10535;50.664;4.564;2023-06-26T01:08:48;20.80;99.90
20750;DHT22;10535;50.664;4.564;2023-06-26T01:11:15;20.70;99.90
20750;DHT22;10535;50.664;4.564;2023-06-26T01:13:43;20.80;99.90
20750;DHT22;10535;50.664;4.564;2023-06-26T01:16:11;20.60;99.90
20750;DHT22;10535;50.664;4.564;2023-06-26T01:18:40;20.60;99.90
20750;DHT22;10535;50.664;4.564;2023-06-26T01:21:09;20.50;99.90
20750;DHT22;10535;50.664;4.564;2023-06-26T01:26:20;20.50;99.90
20750;DHT22;10535;50.664;4.564;2023-06-26T01:28:47;20.40;99.90
20750;DHT22;10535;50.664;4.564;2023-06-26T01:31:15;20.30;99.90
20750;DHT22;10535;50.664;4.564;2023-06-26T01:33:41;20.30;99.90
20750;DHT22;10535;50.664;4.564;2023-06-26T01:36:07;20.30;99.90
20750;DHT22;10535;50.664;4.564;2023-06-26T01:38:34;20.30;99.90
20750;DHT22;10535;50.664;4.564;2023-06-26T01:41:00;20.40;99.90
20750;DHT22;10535;50.664;4.564;2023-06-26T01:45:55;20.20;99.90
20750;DHT22;10535;50.664;4.564;2023-06-26T01:48:31;20.10;99.90
20750;DHT22;10535;50.664;4.564;2023-06-26T01:50:59;20.20;99.90
20750;DHT22;10535;50.664;4.564;2023-06-26T01:53:32;20.30;99.90
20750;DHT22;10535;50.664;4.564;2023-06-26T01:56:13;20.30;99.90
20750;DHT22;10535;50.664;4.564;2023-06-26T01:58:45;20.30;99.90
20750;DHT22;10535;50.664;4.564;2023-06-26T02:01:12;20.20;99.90
20750;DHT22;10535;50.664;4.564;2023-06-26T02:03:39;20.20;99.90
20750;DHT22;10535;50.664;4.564;2023-06-26T02:06:06;20.10;99.90
20750;DHT22;10535;50.664;4.564;2023-06-26T02:08:35;20.00;99.90
20750;DHT22;10535;50.664;4.564;2023-06-26T02:11:01;20.00;99.90
20750;DHT22;10535;50.664;4.564;2023-06-26T02:13:31;19.90;99.90
20750;DHT22;10535;50.664;4.564;2023-06-26T02:15:58;19.80;99.90
20750;DHT22;10535;50.664;4.564;2023-06-26T02:18:24;19.90;99.90
20750;DHT22;10535;50.664;4.564;2023-06-26T02:20:50;19.70;99.90
20750;DHT22;10535;50.664;4.564;2023-06-26T02:23:16;19.70;99.90
20750;DHT22;10535;50.664;4.564;2023-06-26T02:25:43;19.70;99.90
20750;DHT22;10535;50.664;4.564;2023-06-26T02:28:09;19.60;99.90
20750;DHT22;10535;50.664;4.564;2023-06-26T02:30:40;19.70;99.90
20750;DHT22;10535;50.664;4.564;2023-06-26T02:33:07;19.50;99.90
20750;DHT22;10535;50.664;4.564;2023-06-26T02:35:33;19.60;99.90
20750;DHT22;10535;50.664;4.564;2023-06-26T02:38:00;19.40;99.90
20750;DHT22;10535;50.664;4.564;2023-06-26T02:40:26;19.40;99.90
20750;DHT22;10535;50.664;4.564;2023-06-26T02:42:52;19.20;99.90
20750;DHT22;10535;50.664;4.564;2023-06-26T02:45:17;19.20;99.90
20750;DHT22;10535;50.664;4.564;2023-06-26T02:47:43;19.20;99.90
20750;DHT22;10535;50.664;4.564;2023-06-26T02:50:11;19.30;99.90
20750;DHT22;10535;50.664;4.564;2023-06-26T02:52:37;19.20;99.90
20750;DHT22;10535;50.664;4.564;2023-06-26T02:55:05;19.10;99.90
20750;DHT22;10535;50.664;4.564;2023-06-26T02:57:30;19.10;99.90
20750;DHT22;10535;50.664;4.564;2023-06-26T02:59:56;19.30;99.90
20750;DHT22;10535;50.664;4.564;2023-06-26T03:02:22;19.30;99.90
20750;DHT22;10535;50.664;4.564;2023-06-26T03:04:48;19.30;99.90
20750;DHT22;10535;50.664;4.564;2023-06-26T03:07:15;19.30;99.90
20750;DHT22;10535;50.664;4.564;2023-06-26T03:09:41;19.30;99.90
20750;DHT22;10535;50.664;4.564;2023-06-26T03:12:09;19.20;99.90
20750;DHT22;10535;50.664;4.564;2023-06-26T03:14:34;19.20;99.90
20750;DHT22;10535;50.664;4.564;2023-06-26T03:17:01;19.20;99.90
20750;DHT22;10535;50.664;4.564;2023-06-26T03:19:29;19.30;99.90
20750;DHT22;10535;50.664;4.564;2023-06-26T03:21:55;19.30;99.90
20750;DHT22;10535;50.664;4.564;2023-06-26T03:24:21;19.20;99.90
20750;DHT22;10535;50.664;4.564;2023-06-26T03:26:46;19.20;99.90
20750;DHT22;10535;50.664;4.564;2023-06-26T03:29:12;19.10;99.90
20750;DHT22;10535;50.664;4.564;2023-06-26T03:31:38;19.00;99.90
20750;DHT22;10535;50.664;4.564;2023-06-26T03:34:05;18.90;99.90
20750;DHT22;10535;50.664;4.564;2023-06-26T03:36:33;18.90;99.90
20750;DHT22;10535;50.664;4.564;2023-06-26T03:38:58;18.90;99.90
20750;DHT22;10535;50.664;4.564;2023-06-26T03:41:25;18.90;99.90
20750;DHT22;10535;50.664;4.564;2023-06-26T03:43:51;18.80;99.90
20750;DHT22;10535;50.664;4.564;2023-06-26T03:46:18;18.70;99.90
20750;DHT22;10535;50.664;4.564;2023-06-26T03:48:43;18.70;99.90
20750;DHT22;10535;50.664;4.564;2023-06-26T03:51:09;18.60;99.90
20750;DHT22;10535;50.664;4.564;2023-06-26T03:53:35;18.60;99.90
20750;DHT22;10535;50.664;4.564;2023-06-26T03:56:03;18.60;99.90
20750;DHT22;10535;50.664;4.564;2023-06-26T03:58:29;18.60;99.90
20750;DHT22;10535;50.664;4.564;2023-06-26T04:00:54;18.50;99.90
20750;DHT22;10535;50.664;4.564;2023-06-26T04:03:21;18.50;99.90
20750;DHT22;10535;50.664;4.564;2023-06-26T04:05:46;18.60;99.90
20750;DHT22;10535;50.664;4.564;2023-06-26T04:08:12;18.60;99.90
20750;DHT22;10535;50.664;4.564;2023-06-26T04:10:38;18.70;99.90
20750;DHT22;10535;50.664;4.564;2023-06-26T04:13:04;18.60;99.90
20750;DHT22;10535;50.664;4.564;2023-06-26T04:15:29;18.50;99.90
20750;DHT22;10535;50.664;4.564;2023-06-26T04:17:55;18.50;99.90
20750;DHT22;10535;50.664;4.564;2023-06-26T04:20:22;18.40;99.90
20750;DHT22;10535;50.664;4.564;2023-06-26T04:22:48;18.30;99.90
20750;DHT22;10535;50.664;4.564;2023-06-26T04:25:18;18.60;99.90
20750;DHT22;10535;50.664;4.564;2023-06-26T04:27:45;18.50;99.90
20750;DHT22;10535;50.664;4.564;2023-06-26T04:30:12;18.60;99.90
20750;DHT22;10535;50.664;4.564;2023-06-26T04:32:38;18.60;99.90
20750;DHT22;10535;50.664;4.564;2023-06-26T04:35:04;18.30;99.90
20750;DHT22;10535;50.664;4.564;2023-06-26T04:37:30;18.50;99.90
20750;DHT22;10535;50.664;4.564;2023-06-26T04:39:55;18.70;99.90
20750;DHT22;10535;50.664;4.564;2023-06-26T04:42:24;18.50;99.90
20750;DHT22;10535;50.664;4.564;2023-06-26T04:44:49;18.50;99.90
20750;DHT22;10535;50.664;4.564;2023-06-26T04:47:15;18.50;99.90
20750;DHT22;10535;50.664;4.564;2023-06-26T04:49:41;18.70;99.90
20750;DHT22;10535;50.664;4.564;2023-06-26T04:52:11;18.80;99.90
20750;DHT22;10535;50.664;4.564;2023-06-26T04:54:38;18.90;99.90
20750;DHT22;10535;50.664;4.564;2023-06-26T04:57:04;18.90;99.90
20750;DHT22;10535;50.664;4.564;2023-06-26T04:59:31;18.90;99.90
20750;DHT22;10535;50.664;4.564;2023-06-26T05:01:56;19.00;99.90
20750;DHT22;10535;50.664;4.564;2023-06-26T05:04:22;19.00;99.90
20750;DHT22;10535;50.664;4.564;2023-06-26T05:06:48;19.10;99.90
20750;DHT22;10535;50.664;4.564;2023-06-26T05:09:14;19.20;99.90
20750;DHT22;10535;50.664;4.564;2023-06-26T05:11:43;19.50;99.90
20750;DHT22;10535;50.664;4.564;2023-06-26T05:14:08;19.50;99.90
20750;DHT22;10535;50.664;4.564;2023-06-26T05:16:35;19.90;99.90
20750;DHT22;10535;50.664;4.564;2023-06-26T05:19:01;20.50;99.90
20750;DHT22;10535;50.664;4.564;2023-06-26T05:21:27;21.00;99.90
20750;DHT22;10535;50.664;4.564;2023-06-26T05:23:56;20.90;99.90
20750;DHT22;10535;50.664;4.564;2023-06-26T05:26:24;20.80;99.90
20750;DHT22;10535;50.664;4.564;2023-06-26T05:28:50;21.00;99.90
20750;DHT22;10535;50.664;4.564;2023-06-26T05:31:16;21.10;99.90
20750;DHT22;10535;50.664;4.564;2023-06-26T05:33:43;20.80;99.90
20750;DHT22;10535;50.664;4.564;2023-06-26T05:36:13;20.90;99.90
20750;DHT22;10535;50.664;4.564;2023-06-26T05:38:41;21.20;99.90
20750;DHT22;10535;50.664;4.564;2023-06-26T05:41:07;21.60;99.90
20750;DHT22;10535;50.664;4.564;2023-06-26T05:43:38;22.00;99.90
20750;DHT22;10535;50.664;4.564;2023-06-26T05:46:24;21.60;99.90
20750;DHT22;10535;50.664;4.564;2023-06-26T05:48:49;21.20;99.90
20750;DHT22;10535;50.664;4.564;2023-06-26T05:51:15;21.30;99.90
20750;DHT22;10535;50.664;4.564;2023-06-26T05:53:41;21.70;99.90
20750;DHT22;10535;50.664;4.564;2023-06-26T05:56:07;21.30;99.90
20750;DHT22;10535;50.664;4.564;2023-06-26T05:58:33;21.40;99.90
20750;DHT22;10535;50.664;4.564;2023-06-26T06:00:58;21.20;99.90
20750;DHT22;10535;50.664;4.564;2023-06-26T06:03:24;21.30;99.90
20750;DHT22;10535;50.664;4.564;2023-06-26T06:05:53;21.20;99.90
20750;DHT22;10535;50.664;4.564;2023-06-26T06:08:18;20.80;99.90
20750;DHT22;10535;50.664;4.564;2023-06-26T06:10:48;20.80;99.90
20750;DHT22;10535;50.664;4.564;2023-06-26T06:13:13;20.90;99.90
20750;DHT22;10535;50.664;4.564;2023-06-26T06:15:39;21.30;99.90
20750;DHT22;10535;50.664;4.564;2023-06-26T06:18:08;21.80;99.90
20750;DHT22;10535;50.664;4.564;2023-06-26T06:20:56;22.30;99.90
20750;DHT22;10535;50.664;4.564;2023-06-26T06:23:21;22.50;99.90
20750;DHT22;10535;50.664;4.564;2023-06-26T06:25:52;22.40;99.90
20750;DHT22;10535;50.664;4.564;2023-06-26T06:28:18;22.30;99.90
20750;DHT22;10535;50.664;4.564;2023-06-26T06:30:46;22.40;99.90
20750;DHT22;10535;50.664;4.564;2023-06-26T06:33:15;22.40;99.90
20750;DHT22;10535;50.664;4.564;2023-06-26T06:35:41;21.70;99.90
20750;DHT22;10535;50.664;4.564;2023-06-26T06:38:07;21.50;99.90
20750;DHT22;10535;50.664;4.564;2023-06-26T06:40:32;21.30;99.90
20750;DHT22;10535;50.664;4.564;2023-06-26T06:42:58;21.60;99.90
20750;DHT22;10535;50.664;4.564;2023-06-26T06:45:23;21.60;99.90
20750;DHT22;10535;50.664;4.564;2023-06-26T06:47:49;21.80;99.90
20750;DHT22;10535;50.664;4.564;2023-06-26T06:50:15;22.00;99.90
20750;DHT22;10535;50.664;4.564;2023-06-26T06:52:44;22.20;99.90
20750;DHT22;10535;50.664;4.564;2023-06-26T06:55:09;22.10;99.90
20750;DHT22;10535;50.664;4.564;2023-06-26T06:57:36;22.20;99.90
20750;DHT22;10535;50.664;4.564;2023-06-26T07:00:08;22.30;99.90
20750;DHT22;10535;50.664;4.564;2023-06-26T07:02:39;22.50;99.90
20750;DHT22;10535;50.664;4.564;2023-06-26T07:05:05;22.90;99.90
20750;DHT22;10535;50.664;4.564;2023-06-26T07:07:32;23.00;99.90
20750;DHT22;10535;50.664;4.564;2023-06-26T07:10:04;22.60;99.90
20750;DHT22;10535;50.664;4.564;2023-06-26T07:12:30;22.50;99.90
20750;DHT22;10535;50.664;4.564;2023-06-26T07:14:56;22.40;99.90
20750;DHT22;10535;50.664;4.564;2023-06-26T07:17:22;22.00;99.90
20750;DHT22;10535;50.664;4.564;2023-06-26T07:19:49;22.40;99.90
20750;DHT22;10535;50.664;4.564;2023-06-26T07:22:15;22.30;99.90
20750;DHT22;10535;50.664;4.564;2023-06-26T07:24:41;22.30;99.90
20750;DHT22;10535;50.664;4.564;2023-06-26T07:27:06;22.70;99.90
20750;DHT22;10535;50.664;4.564;2023-06-26T07:29:33;23.20;99.90
20750;DHT22;10535;50.664;4.564;2023-06-26T07:31:59;23.00;99.90
20750;DHT22;10535;50.664;4.564;2023-06-26T07:34:24;23.30;99.90
20750;DHT22;10535;50.664;4.564;2023-06-26T07:36:50;23.30;99.90
20750;DHT22;10535;50.664;4.564;2023-06-26T07:39:15;23.50;99.90
20750;DHT22;10535;50.664;4.564;2023-06-26T07:41:41;23.60;99.90
20750;DHT22;10535;50.664;4.564;2023-06-26T07:44:07;23.40;99.90
20750;DHT22;10535;50.664;4.564;2023-06-26T07:46:32;22.90;99.90
20750;DHT22;10535;50.664;4.564;2023-06-26T07:48:58;22.80;99.90
20750;DHT22;10535;50.664;4.564;2023-06-26T07:51:24;22.80;99.90
20750;DHT22;10535;50.664;4.564;2023-06-26T07:53:49;23.20;99.90
20750;DHT22;10535;50.664;4.564;2023-06-26T07:56:17;23.20;99.90
20750;DHT22;10535;50.664;4.564;2023-06-26T07:58:44;22.80;99.90
20750;DHT22;10535;50.664;4.564;2023-06-26T08:01:10;22.90;99.90
20750;DHT22;10535;50.664;4.564;2023-06-26T08:06:49;22.40;99.90
20750;DHT22;10535;50.664;4.564;2023-06-26T08:09:38;22.20;99.90
20750;DHT22;10535;50.664;4.564;2023-06-26T08:12:56;22.40;99.90
20750;DHT22;10535;50.664;4.564;2023-06-26T08:18:07;22.50;99.90
20750;DHT22;10535;50.664;4.564;2023-06-26T08:20:55;22.30;99.90
20750;DHT22;10535;50.664;4.564;2023-06-26T08:23:20;22.40;99.90
20750;DHT22;10535;50.664;4.564;2023-06-26T08:26:10;22.70;99.90
20750;DHT22;10535;50.664;4.564;2023-06-26T08:29:04;22.60;99.90
20750;DHT22;10535;50.664;4.564;2023-06-26T08:31:39;22.60;99.90
20750;DHT22;10535;50.664;4.564;2023-06-26T08:34:22;22.40;99.90
20750;DHT22;10535;50.664;4.564;2023-06-26T08:36:47;22.50;99.90
20750;DHT22;10535;50.664;4.564;2023-06-26T08:39:56;22.50;99.90
20750;DHT22;10535;50.664;4.564;2023-06-26T08:42:21;22.10;99.90
20750;DHT22;10535;50.664;4.564;2023-06-26T08:45:06;21.90;99.90
20750;DHT22;10535;50.664;4.564;2023-06-26T08:47:32;22.10;99.90
20750;DHT22;10535;50.664;4.564;2023-06-26T08:50:08;22.10;99.90
20750;DHT22;10535;50.664;4.564;2023-06-26T08:55:47;22.60;99.90
20750;DHT22;10535;50.664;4.564;2023-06-26T08:58:32;22.80;99.90
20750;DHT22;10535;50.664;4.564;2023-06-26T09:01:21;22.90;99.90
20750;DHT22;10535;50.664;4.564;2023-06-26T09:04:16;22.90;99.90
20750;DHT22;10535;50.664;4.564;2023-06-26T09:06:59;22.70;99.90
20750;DHT22;10535;50.664;4.564;2023-06-26T09:10:30;23.10;99.90
20750;DHT22;10535;50.664;4.564;2023-06-26T09:13:28;22.90;99.90
20750;DHT22;10535;50.664;4.564;2023-06-26T09:16:17;22.60;99.90
20750;DHT22;10535;50.664;4.564;2023-06-26T09:19:09;22.40;99.90
20750;DHT22;10535;50.664;4.564;2023-06-26T09:21:58;22.40;99.90
20750;DHT22;10535;50.664;4.564;2023-06-26T09:24:58;22.60;99.90
20750;DHT22;10535;50.664;4.564;2023-06-26T09:27:44;22.60;99.90
20750;DHT22;10535;50.664;4.564;2023-06-26T09:30:19;22.80;99.90
20750;DHT22;10535;50.664;4.564;2023-06-26T09:33:33;23.20;99.90
20750;DHT22;10535;50.664;4.564;2023-06-26T09:36:31;22.90;99.90
20750;DHT22;10535;50.664;4.564;2023-06-26T09:39:02;22.00;99.90
20750;DHT22;10535;50.664;4.564;2023-06-26T09:41:47;22.30;99.90
20750;DHT22;10535;50.664;4.564;2023-06-26T09:44:14;22.50;99.90
20750;DHT22;10535;50.664;4.564;2023-06-26T09:46:39;22.80;99.90
20750;DHT22;10535;50.664;4.564;2023-06-26T09:49:10;22.80;99.90
20750;DHT22;10535;50.664;4.564;2023-06-26T09:51:39;22.60;99.90
20750;DHT22;10535;50.664;4.564;2023-06-26T09:54:07;22.70;99.90
20750;DHT22;10535;50.664;4.564;2023-06-26T09:56:34;22.80;99.90
20750;DHT22;10535;50.664;4.564;2023-06-26T09:59:02;22.90;99.90
20750;DHT22;10535;50.664;4.564;2023-06-26T10:01:28;22.80;99.90
20750;DHT22;10535;50.664;4.564;2023-06-26T10:03:58;22.70;99.90
20750;DHT22;10535;50.664;4.564;2023-06-26T10:06:47;22.80;99.90
20750;DHT22;10535;50.664;4.564;2023-06-26T10:09:41;23.10;99.90
20750;DHT22;10535;50.664;4.564;2023-06-26T10:12:19;23.40;99.90
20750;DHT22;10535;50.664;4.564;2023-06-26T10:14:49;23.20;99.90
20750;DHT22;10535;50.664;4.564;2023-06-26T10:17:19;23.40;99.90
20750;DHT22;10535;50.664;4.564;2023-06-26T10:19:48;23.60;99.90
20750;DHT22;10535;50.664;4.564;2023-06-26T10:22:18;23.40;99.90
20750;DHT22;10535;50.664;4.564;2023-06-26T10:24:53;23.70;99.90
20750;DHT22;10535;50.664;4.564;2023-06-26T10:27:21;23.30;99.90
20750;DHT22;10535;50.664;4.564;2023-06-26T10:29:56;23.30;99.90
20750;DHT22;10535;50.664;4.564;2023-06-26T10:32:26;23.30;99.90
20750;DHT22;10535;50.664;4.564;2023-06-26T10:35:06;23.40;99.90
20750;DHT22;10535;50.664;4.564;2023-06-26T10:37:46;23.50;99.90
20750;DHT22;10535;50.664;4.564;2023-06-26T10:40:25;23.50;99.90
20750;DHT22;10535;50.664;4.564;2023-06-26T10:42:51;23.70;99.90
20750;DHT22;10535;50.664;4.564;2023-06-26T10:45:20;23.80;99.90
20750;DHT22;10535;50.664;4.564;2023-06-26T10:47:48;23.90;99.90
20750;DHT22;10535;50.664;4.564;2023-06-26T10:52:54;24.20;99.90
20750;DHT22;10535;50.664;4.564;2023-06-26T10:55:31;24.50;99.90
20750;DHT22;10535;50.664;4.564;2023-06-26T10:57:57;24.10;99.90
20750;DHT22;10535;50.664;4.564;2023-06-26T11:00:23;24.20;99.90
20750;DHT22;10535;50.664;4.564;2023-06-26T11:02:51;24.50;99.90
20750;DHT22;10535;50.664;4.564;2023-06-26T11:05:28;25.00;99.90
20750;DHT22;10535;50.664;4.564;2023-06-26T11:08:08;24.80;99.90
20750;DHT22;10535;50.664;4.564;2023-06-26T11:10:54;25.00;99.90
20750;DHT22;10535;50.664;4.564;2023-06-26T11:13:21;24.90;99.90
20750;DHT22;10535;50.664;4.564;2023-06-26T11:15:49;25.30;99.90
20750;DHT22;10535;50.664;4.564;2023-06-26T11:18:15;25.40;99.90
20750;DHT22;10535;50.664;4.564;2023-06-26T11:20:41;25.50;99.90
20750;DHT22;10535;50.664;4.564;2023-06-26T11:23:08;25.20;99.90
20750;DHT22;10535;50.664;4.564;2023-06-26T11:25:36;24.60;99.90
20750;DHT22;10535;50.664;4.564;2023-06-26T11:28:09;24.60;99.90
20750;DHT22;10535;50.664;4.564;2023-06-26T11:30:36;24.80;99.90
20750;DHT22;10535;50.664;4.564;2023-06-26T11:33:07;24.90;99.90
20750;DHT22;10535;50.664;4.564;2023-06-26T11:35:34;24.80;99.90
20750;DHT22;10535;50.664;4.564;2023-06-26T11:38:00;24.40;99.90
20750;DHT22;10535;50.664;4.564;2023-06-26T11:40:31;24.40;99.90
20750;DHT22;10535;50.664;4.564;2023-06-26T11:42:58;24.40;99.90
20750;DHT22;10535;50.664;4.564;2023-06-26T11:45:25;24.30;99.90
20750;DHT22;10535;50.664;4.564;2023-06-26T11:47:55;24.40;99.90
20750;DHT22;10535;50.664;4.564;2023-06-26T11:50:22;24.70;99.90
20750;DHT22;10535;50.664;4.564;2023-06-26T11:52:58;24.50;99.90
20750;DHT22;10535;50.664;4.564;2023-06-26T11:55:24;24.40;99.90
20750;DHT22;10535;50.664;4.564;2023-06-26T11:57:55;24.40;99.90
20750;DHT22;10535;50.664;4.564;2023-06-26T12:00:21;24.50;99.90
20750;DHT22;10535;50.664;4.564;2023-06-26T12:02:47;24.90;99.90
20750;DHT22;10535;50.664;4.564;2023-06-26T12:05:16;24.80;99.90
20750;DHT22;10535;50.664;4.564;2023-06-26T12:07:43;24.90;99.90
20750;DHT22;10535;50.664;4.564;2023-06-26T12:10:11;24.60;99.90
20750;DHT22;10535;50.664;4.564;2023-06-26T12:12:39;24.70;99.90
20750;DHT22;10535;50.664;4.564;2023-06-26T12:15:07;25.10;99.90
20750;DHT22;10535;50.664;4.564;2023-06-26T12:17:33;25.20;99.90
20750;DHT22;10535;50.664;4.564;2023-06-26T12:19:59;25.20;99.90
20750;DHT22;10535;50.664;4.564;2023-06-26T12:22:34;25.30;99.90
20750;DHT22;10535;50.664;4.564;2023-06-26T12:25:20;25.20;99.90
20750;DHT22;10535;50.664;4.564;2023-06-26T12:27:50;25.30;99.90
20750;DHT22;10535;50.664;4.564;2023-06-26T12:30:15;24.80;99.90
20750;DHT22;10535;50.664;4.564;2023-06-26T12:32:44;25.10;99.90
20750;DHT22;10535;50.664;4.564;2023-06-26T12:35:11;24.80;99.90
20750;DHT22;10535;50.664;4.564;2023-06-26T12:37:37;25.20;99.90
20750;DHT22;10535;50.664;4.564;2023-06-26T12:40:16;25.20;99.90
20750;DHT22;10535;50.664;4.564;2023-06-26T12:42:43;25.60;99.90
20750;DHT22;10535;50.664;4.564;2023-06-26T12:45:13;25.70;99.90
20750;DHT22;10535;50.664;4.564;2023-06-26T12:47:39;25.50;99.90
20750;DHT22;10535;50.664;4.564;2023-06-26T12:50:07;25.40;99.90
20750;DHT22;10535;50.664;4.564;2023-06-26T12:52:33;25.60;99.90
20750;DHT22;10535;50.664;4.564;2023-06-26T12:54:58;26.00;99.90
20750;DHT22;10535;50.664;4.564;2023-06-26T12:57:24;26.40;99.90
20750;DHT22;10535;50.664;4.564;2023-06-26T12:59:50;26.30;99.90
20750;DHT22;10535;50.664;4.564;2023-06-26T13:02:38;26.10;99.90
20750;DHT22;10535;50.664;4.564;2023-06-26T13:05:08;25.20;99.90
20750;DHT22;10535;50.664;4.564;2023-06-26T13:07:33;25.10;99.90
20750;DHT22;10535;50.664;4.564;2023-06-26T13:09:59;24.90;99.90
20750;DHT22;10535;50.664;4.564;2023-06-26T13:12:25;25.10;99.90
20750;DHT22;10535;50.664;4.564;2023-06-26T13:14:50;25.00;99.90
20750;DHT22;10535;50.664;4.564;2023-06-26T13:17:16;24.70;99.90
20750;DHT22;10535;50.664;4.564;2023-06-26T13:19:41;24.80;99.90
20750;DHT22;10535;50.664;4.564;2023-06-26T13:22:08;24.90;99.90
20750;DHT22;10535;50.664;4.564;2023-06-26T13:24:34;25.20;99.90
20750;DHT22;10535;50.664;4.564;2023-06-26T13:27:00;25.60;99.90
20750;DHT22;10535;50.664;4.564;2023-06-26T13:29:26;25.50;99.90
20750;DHT22;10535;50.664;4.564;2023-06-26T13:31:51;25.70;99.90
20750;DHT22;10535;50.664;4.564;2023-06-26T13:34:21;26.00;99.90
20750;DHT22;10535;50.664;4.564;2023-06-26T13:36:48;26.20;99.90
20750;DHT22;10535;50.664;4.564;2023-06-26T13:39:17;25.70;99.90
20750;DHT22;10535;50.664;4.564;2023-06-26T13:41:43;25.40;99.90
20750;DHT22;10535;50.664;4.564;2023-06-26T13:44:09;24.90;99.90
20750;DHT22;10535;50.664;4.564;2023-06-26T13:46:35;24.70;99.90
20750;DHT22;10535;50.664;4.564;2023-06-26T13:49:00;24.60;99.90
20750;DHT22;10535;50.664;4.564;2023-06-26T13:51:26;25.00;99.90
20750;DHT22;10535;50.664;4.564;2023-06-26T13:53:57;25.20;99.90
20750;DHT22;10535;50.664;4.564;2023-06-26T13:56:25;25.40;99.90
20750;DHT22;10535;50.664;4.564;2023-06-26T13:58:51;25.20;99.90
20750;DHT22;10535;50.664;4.564;2023-06-26T14:01:30;25.10;99.90
20750;DHT22;10535;50.664;4.564;2023-06-26T14:03:57;25.40;99.90
20750;DHT22;10535;50.664;4.564;2023-06-26T14:06:42;25.80;99.90
20750;DHT22;10535;50.664;4.564;2023-06-26T14:09:08;25.40;99.90
20750;DHT22;10535;50.664;4.564;2023-06-26T14:11:35;25.30;99.90
20750;DHT22;10535;50.664;4.564;2023-06-26T14:14:01;25.50;99.90
20750;DHT22;10535;50.664;4.564;2023-06-26T14:16:45;25.60;99.90
20750;DHT22;10535;50.664;4.564;2023-06-26T14:20:15;25.80;99.90
20750;DHT22;10535;50.664;4.564;2023-06-26T14:22:58;25.90;99.90
20750;DHT22;10535;50.664;4.564;2023-06-26T14:25:36;25.30;99.90
20750;DHT22;10535;50.664;4.564;2023-06-26T14:28:04;24.70;99.90
20750;DHT22;10535;50.664;4.564;2023-06-26T14:30:29;24.40;99.90
20750;DHT22;10535;50.664;4.564;2023-06-26T14:32:55;24.60;99.90
20750;DHT22;10535;50.664;4.564;2023-06-26T14:35:44;24.60;99.90
20750;DHT22;10535;50.664;4.564;2023-06-26T14:38:32;24.40;99.90
20750;DHT22;10535;50.664;4.564;2023-06-26T14:41:00;24.30;99.90
20750;DHT22;10535;50.664;4.564;2023-06-26T14:43:27;24.40;99.90
20750;DHT22;10535;50.664;4.564;2023-06-26T14:46:07;24.50;99.90
20750;DHT22;10535;50.664;4.564;2023-06-26T14:48:41;24.20;99.90
20750;DHT22;10535;50.664;4.564;2023-06-26T14:51:07;24.20;99.90
20750;DHT22;10535;50.664;4.564;2023-06-26T14:53:32;24.20;99.90
20750;DHT22;10535;50.664;4.564;2023-06-26T14:55:58;24.40;99.90
20750;DHT22;10535;50.664;4.564;2023-06-26T14:58:27;24.70;99.90
20750;DHT22;10535;50.664;4.564;2023-06-26T15:00:53;24.70;99.90
20750;DHT22;10535;50.664;4.564;2023-06-26T15:03:38;24.90;99.90
20750;DHT22;10535;50.664;4.564;2023-06-26T15:06:33;25.00;99.90
20750;DHT22;10535;50.664;4.564;2023-06-26T15:09:39;25.00;99.90
20750;DHT22;10535;50.664;4.564;2023-06-26T15:12:11;25.00;99.90
20750;DHT22;10535;50.664;4.564;2023-06-26T15:14:39;24.60;99.90
20750;DHT22;10535;50.664;4.564;2023-06-26T15:17:52;24.90;99.90
20750;DHT22;10535;50.664;4.564;2023-06-26T15:20:18;25.10;99.90
20750;DHT22;10535;50.664;4.564;2023-06-26T15:22:51;25.20;99.90
20750;DHT22;10535;50.664;4.564;2023-06-26T15:25:19;25.40;99.90
20750;DHT22;10535;50.664;4.564;2023-06-26T15:28:12;25.30;99.90
20750;DHT22;10535;50.664;4.564;2023-06-26T15:31:01;24.80;99.90
20750;DHT22;10535;50.664;4.564;2023-06-26T15:33:27;24.50;99.90
20750;DHT22;10535;50.664;4.564;2023-06-26T15:36:13;24.60;99.90
20750;DHT22;10535;50.664;4.564;2023-06-26T15:38:38;24.80;99.90
20750;DHT22;10535;50.664;4.564;2023-06-26T15:41:06;24.90;99.90
20750;DHT22;10535;50.664;4.564;2023-06-26T15:43:32;24.60;99.90
20750;DHT22;10535;50.664;4.564;2023-06-26T15:45:59;24.30;99.90
20750;DHT22;10535;50.664;4.564;2023-06-26T15:48:27;24.10;99.90
20750;DHT22;10535;50.664;4.564;2023-06-26T15:50:54;23.90;99.90
20750;DHT22;10535;50.664;4.564;2023-06-26T15:53:19;23.80;99.90
20750;DHT22;10535;50.664;4.564;2023-06-26T15:55:58;23.90;99.90
20750;DHT22;10535;50.664;4.564;2023-06-26T15:58:24;23.70;99.90
20750;DHT22;10535;50.664;4.564;2023-06-26T16:00:54;23.70;99.90
20750;DHT22;10535;50.664;4.564;2023-06-26T16:03:22;23.80;99.90
20750;DHT22;10535;50.664;4.564;2023-06-26T16:05:48;23.90;99.90